createdAt,value
2019-04-01T04:07:32.618Z,1010.18
2019-04-01T04:12:33.238Z,1010.24
2019-04-01T04:17:33.697Z,1010.15
2019-04-01T04:22:34.145Z,1010.23
2019-04-01T04:27:34.804Z,1010.26
2019-04-01T04:32:35.312Z,1010.28
2019-04-01T04:37:35.806Z,1010.33
2019-04-01T04:42:36.440Z,1010.33
2019-04-01T04:47:36.879Z,1010.39
2019-04-01T04:52:37.518Z,1010.45
2019-04-01T04:57:37.996Z,1010.34
2019-04-01T05:02:38.820Z,1010.40
2019-04-01T05:07:39.480Z,1010.35
2019-04-01T05:12:39.938Z,1010.21
2019-04-01T05:17:40.384Z,1010.25
2019-04-01T05:22:41.005Z,1010.17
2019-04-01T05:27:41.676Z,1010.11
2019-04-01T05:32:42.298Z,1010.10
2019-04-01T05:37:42.859Z,1010.14
2019-04-01T05:42:43.535Z,1010.19
2019-04-01T05:47:44.164Z,1010.23
2019-04-01T05:52:44.814Z,1010.21
2019-04-01T05:57:45.436Z,1010.25
2019-04-01T06:02:45.871Z,1010.27
2019-04-01T06:07:46.208Z,1010.19
2019-04-01T06:12:46.790Z,1010.24
2019-04-01T06:17:47.258Z,1010.24
2019-04-01T06:22:47.674Z,1010.32
2019-04-01T06:27:48.131Z,1010.31
2019-04-01T06:32:48.562Z,1010.27
2019-04-01T06:37:49.186Z,1010.27
2019-04-01T06:42:49.668Z,1010.30
2019-04-01T06:47:50.315Z,1010.30
2019-04-01T06:52:50.754Z,1010.31
2019-04-01T06:57:51.199Z,1010.28
2019-04-01T07:02:51.643Z,1010.26
2019-04-01T07:07:52.056Z,1010.26
2019-04-01T07:12:52.531Z,1010.25
2019-04-01T07:17:53.365Z,1010.19
2019-04-01T07:22:53.829Z,1010.19
2019-04-01T07:27:54.247Z,1010.19
2019-04-01T07:32:54.727Z,1010.05
2019-04-01T07:37:55.086Z,1010.06
2019-04-01T07:42:55.588Z,1010.09
2019-04-01T07:47:56.041Z,1010.07
2019-04-01T07:52:56.682Z,1010.10
2019-04-01T07:57:59.721Z,1010.03
2019-04-01T08:02:58.589Z,1009.87
2019-04-01T08:07:59.093Z,1009.82
2019-04-01T08:12:59.895Z,1009.93
2019-04-01T08:18:00.344Z,1009.92
2019-04-01T08:23:00.991Z,1009.93
2019-04-01T08:28:01.644Z,1009.88
2019-04-01T08:33:02.091Z,1009.86
2019-04-01T08:38:02.733Z,1009.92
2019-04-01T08:43:03.389Z,1009.94
2019-04-01T08:48:04.007Z,1009.87
2019-04-01T08:53:04.505Z,1009.80
2019-04-01T08:58:05.118Z,1009.81
2019-04-01T09:03:05.767Z,1009.70
2019-04-01T09:08:06.403Z,1009.68
2019-04-01T09:13:06.844Z,1009.63
2019-04-01T09:18:07.504Z,1009.63
2019-04-01T09:23:07.911Z,1009.52
2019-04-01T09:28:08.608Z,1009.50
2019-04-01T09:33:09.044Z,1009.48
2019-04-01T09:38:09.487Z,1009.42
2019-04-01T09:43:12.415Z,1009.42
2019-04-01T09:48:10.592Z,1009.28
2019-04-01T09:53:11.021Z,1009.30
2019-04-01T09:58:11.555Z,1009.24
2019-04-01T10:03:12.128Z,1009.19
2019-04-01T10:08:12.553Z,1009.11
2019-04-01T10:13:13.035Z,1008.97
2019-04-01T10:18:13.642Z,1008.96
2019-04-01T10:23:14.107Z,1008.89
2019-04-01T10:28:14.857Z,1008.87
2019-04-01T10:33:15.409Z,1008.70
2019-04-01T10:38:15.858Z,1008.73
2019-04-01T10:43:16.266Z,1008.68
2019-04-01T10:48:16.747Z,1008.64
2019-04-01T10:53:17.228Z,1008.63
2019-04-01T10:58:18.092Z,1008.54
2019-04-01T11:03:18.866Z,1008.48
2019-04-01T11:08:19.805Z,1008.45
2019-04-01T11:13:21.899Z,1008.37
2019-04-01T11:18:20.820Z,1008.31
2019-04-01T11:23:21.224Z,1008.24
2019-04-01T11:28:21.938Z,1008.17
2019-04-01T11:33:22.378Z,1008.05
2019-04-01T11:38:22.994Z,1008.10
2019-04-01T11:43:23.960Z,1007.98
2019-04-01T11:48:24.440Z,1007.94
2019-04-01T11:53:24.960Z,1007.92
2019-04-01T11:58:25.406Z,1007.81
2019-04-01T12:03:25.838Z,1007.72
2019-04-01T12:08:26.315Z,1007.62
2019-04-01T12:13:26.927Z,1007.50
2019-04-01T12:18:27.356Z,1007.47
2019-04-01T12:23:28.153Z,1007.42
2019-04-01T12:28:28.655Z,1007.29
2019-04-01T12:33:29.332Z,1007.22
2019-04-01T12:38:29.751Z,1007.15
2019-04-01T12:43:30.402Z,1007.09
2019-04-01T12:48:30.891Z,1007.03
2019-04-01T12:53:31.299Z,1006.97
2019-04-01T12:58:31.954Z,1006.93
2019-04-01T13:03:32.370Z,1006.90
2019-04-01T13:08:32.963Z,1006.77
2019-04-01T13:13:33.502Z,1006.69
2019-04-01T13:18:33.927Z,1006.64
2019-04-01T13:23:34.389Z,1006.58
2019-04-01T13:28:34.797Z,1006.48
2019-04-01T13:33:35.233Z,1006.40
2019-04-01T13:38:35.712Z,1006.23
2019-04-01T13:43:36.154Z,1006.21
2019-04-01T13:48:36.812Z,1006.10
2019-04-01T13:53:37.221Z,1006.03
2019-04-01T13:58:39.295Z,1005.94
2019-04-01T14:03:37.927Z,1005.91
2019-04-01T14:08:38.373Z,1005.86
2019-04-01T14:13:38.999Z,1005.76
2019-04-01T14:18:39.416Z,1005.65
2019-04-01T14:23:40.105Z,1005.58
2019-04-01T14:28:40.737Z,1005.49
2019-04-01T14:33:41.221Z,1005.49
2019-04-01T14:38:41.649Z,1005.33
2019-04-01T14:43:42.296Z,1005.30
2019-04-01T14:48:42.917Z,1005.28
2019-04-01T14:53:43.556Z,1005.10
2019-04-01T14:58:44.239Z,1005.01
2019-04-01T15:03:44.712Z,1005.01
2019-04-01T15:08:45.335Z,1004.95
2019-04-01T15:13:45.765Z,1004.89
2019-04-01T15:18:46.445Z,1004.77
2019-04-01T15:23:47.086Z,1004.72
2019-04-01T15:28:47.531Z,1004.65
2019-04-01T15:33:47.969Z,1004.60
2019-04-01T15:38:48.396Z,1004.59
2019-04-01T15:43:48.834Z,1004.45
2019-04-01T15:48:49.341Z,1004.40
2019-04-01T15:53:49.708Z,1004.34
2019-04-01T15:58:50.942Z,1004.28
2019-04-01T16:03:51.647Z,1004.22
2019-04-01T16:08:52.068Z,1004.17
2019-04-01T16:13:52.515Z,1003.99
2019-04-01T16:18:53.235Z,1003.98
2019-04-01T16:23:54.044Z,1003.98
2019-04-01T16:28:54.690Z,1003.90
2019-04-01T16:33:55.107Z,1003.85
2019-04-01T16:38:55.581Z,1003.90
2019-04-01T16:43:56.027Z,1003.83
2019-04-01T16:48:56.453Z,1003.81
2019-04-01T16:53:57.032Z,1003.89
2019-04-01T16:58:57.565Z,1003.82
2019-04-01T17:03:57.958Z,1003.71
2019-04-01T17:08:58.412Z,1003.72
2019-04-01T17:13:58.854Z,1003.69
2019-04-01T17:18:59.358Z,1003.62
2019-04-01T17:23:59.971Z,1003.59
2019-04-01T17:29:00.611Z,1003.51
2019-04-01T17:34:01.199Z,1003.54
2019-04-01T17:39:01.710Z,1003.54
2019-04-01T17:44:02.355Z,1003.58
2019-04-01T17:49:03.018Z,1003.56
2019-04-01T17:54:03.666Z,1003.58
2019-04-01T17:59:04.293Z,1003.51
2019-04-01T18:04:05.091Z,1003.54
2019-04-01T18:09:05.823Z,1003.48
2019-04-01T18:14:06.460Z,1003.43
2019-04-01T18:19:07.505Z,1003.46
2019-04-01T18:24:08.137Z,1003.46
2019-04-01T18:29:09.935Z,1003.54
2019-04-01T18:34:10.702Z,1003.56
2019-04-01T18:39:11.133Z,1003.47
2019-04-01T18:44:11.577Z,1003.48
2019-04-01T18:49:12.362Z,1003.53
2019-04-01T18:54:12.860Z,1003.50
2019-04-01T18:59:13.317Z,1003.47
2019-04-01T19:04:13.734Z,1003.48
2019-04-01T19:09:14.214Z,1003.55
2019-04-01T19:14:14.895Z,1003.52
2019-04-01T19:19:15.511Z,1003.48
2019-04-01T19:24:15.906Z,1003.45
2019-04-01T19:29:16.521Z,1003.38
2019-04-01T19:34:17.439Z,1003.45
2019-04-01T19:39:17.886Z,1003.49
2019-04-01T19:44:18.339Z,1003.43
2019-04-01T19:49:18.772Z,1003.36
2019-04-01T19:54:28.004Z,1003.36
2019-04-01T19:59:19.636Z,1003.44
2019-04-01T20:04:20.114Z,1003.36
2019-04-01T20:09:20.531Z,1003.30
2019-04-01T20:14:21.005Z,1003.31
2019-04-01T20:19:21.406Z,1003.27
2019-04-01T20:24:21.904Z,1003.25
2019-04-01T20:29:22.337Z,1003.27
2019-04-01T20:34:22.977Z,1003.26
2019-04-01T20:39:24.277Z,1003.24
2019-04-01T20:44:23.937Z,1003.16
2019-04-01T20:49:24.394Z,1003.01
2019-04-01T20:54:24.828Z,1003.01
2019-04-01T20:59:25.629Z,1002.95
2019-04-01T21:04:27.181Z,1002.93
2019-04-01T21:09:28.035Z,1002.90
2019-04-01T21:14:28.644Z,1002.76
2019-04-01T21:19:29.301Z,1002.73
2019-04-01T21:24:29.756Z,1002.68
2019-04-01T21:29:30.216Z,1002.68
2019-04-01T21:34:30.835Z,1002.62
2019-04-01T21:39:31.489Z,1002.73
2019-04-01T21:44:31.927Z,1002.65
2019-04-01T21:49:32.618Z,1002.64
2019-04-01T21:54:33.053Z,1002.62
2019-04-01T21:59:33.487Z,1002.60
2019-04-01T22:04:33.913Z,1002.55
2019-04-01T22:09:34.450Z,1002.46
2019-04-01T22:14:35.034Z,1002.49
2019-04-01T22:19:35.448Z,1002.51
2019-04-01T22:24:35.812Z,1002.46
2019-04-01T22:29:36.360Z,1002.31
2019-04-01T22:34:38.064Z,1002.26
2019-04-01T22:39:38.681Z,1002.23
2019-04-01T22:44:39.127Z,1002.17
2019-04-01T22:49:41.134Z,1002.16
2019-04-01T22:54:40.007Z,1002.15
2019-04-01T22:59:40.438Z,1001.99
2019-04-01T23:04:40.909Z,1002.00
2019-04-01T23:09:41.325Z,1001.91
2019-04-01T23:14:41.781Z,1001.87
2019-04-01T23:19:42.201Z,1001.85
2019-04-01T23:24:42.656Z,1001.78
2019-04-01T23:29:43.099Z,1001.66
2019-04-01T23:34:43.612Z,1001.65
2019-04-01T23:39:44.223Z,1001.55
2019-04-01T23:44:44.673Z,1001.56
2019-04-01T23:49:45.078Z,1001.52
2019-04-01T23:54:45.522Z,1001.44
2019-04-01T23:59:45.992Z,1001.35
